Portada
METAR-TAF:

METAR-TAF

Aeroports :

Aeroport de Melilla

Melilla, Espanya

latitud: 35-17N, longitud: 002-57W, altitud: 47 m

Observació

L'informe es va fer fa 26 minuts, a les 21:00 UTC
Vent 3 kt del Nord, variant entre Nord-Oest i Nord/Nord-Est
Temperatura 23°C
Humitat 83%
Pressió 1015 hPa
Visibilitat 10 km o més

METAR: GEML 232100Z AUTO 36003KT 320V030 9999 BKN012/// 23/20 Q1015

Hora: 23:26 (21:26 UTC)

Pronòstic

L'informe es va fer fa 1 hora i 26 minuts, a les 20:00 UTC
Pronòstic vàlid del 23 a les 21 UTC al 24 a les 21 UTC
Vent 6 kt del Est/Nord-Est
Visibilitat 10 km o més
Núvols disperses a una alçada de 1000 ft
Núvols disperses a una alçada de 1500 ft
Temporalment
l' 23 a les 21 UTC al 24 a les 12 UTC
Cel ennuvolat a una alçada de 1000 ft
Probabilitat 30% :
Temporalment
l' 24 a les 12 UTC al 24 a les 21 UTC
Cel ennuvolat a una alçada de 1200 ft

TAF: GEML 232000Z 2321/2421 06006KT 9999 SCT010 SCT015 TX26/2414Z TN21/2405Z TEMPO 2321/2412 BKN010 PROB30 TEMPO 2412/2421 BKN012

Observacions i pronòstics meteorològics de més de 4000 aeroports (METAR i TAF).

Les estacions disponibles són els punts grocs i vermells al mapa.

Posi el ratolí al punt desitjat per veure el nom de l'estació.

Feu clic per veure les observacions i els pronòstics meteorològics.

Per canviar el mapa: feu clic els botons verds amb una creu de color negre per apropar; al botó verd amb un guió per allunyar la imatge; o en les fletxes verdes per a mapes adjacents.


METAR-TAF: